Time;durP1;ratioP1;P1;durP2;ratioP2;P2;SDS_P1;SDS_P2;PMS_P1;PMS_P2;Temp;Humidity;BMP_temperature;BMP_pressure;BME280_temperature;BME280_humidity;BME280_pressure;Samples;Min_cycle;Max_cycle;Signal;HPM_P1;HPM_P2
2022/10/01 00:00:22;;;;;;;9.20;6.07;;;11.90;99.90;;;;;;6182072;23;20035;-74
2022/10/01 00:02:48;;;;;;;7.10;6.50;;;12.00;99.90;;;;;;6181910;23;20009;-73
2022/10/01 00:05:13;;;;;;;8.88;7.47;;;11.90;99.90;;;;;;6181087;23;20016;-73
2022/10/01 00:07:43;;;;;;;6.13;5.57;;;11.90;99.90;;;;;;6181893;23;20084;-74
2022/10/01 00:10:11;;;;;;;9.38;7.43;;;11.90;99.90;;;;;;6181335;23;20020;-74
2022/10/01 00:12:38;;;;;;;7.10;6.43;;;11.80;99.90;;;;;;6181581;23;20403;-74
2022/10/01 00:15:08;;;;;;;7.97;5.70;;;11.70;99.90;;;;;;6181892;23;19997;-74
2022/10/01 00:17:35;;;;;;;8.35;6.57;;;11.80;99.90;;;;;;6181904;23;19997;-74
2022/10/01 00:20:02;;;;;;;9.43;7.22;;;11.80;99.90;;;;;;6179651;23;20422;-73
2022/10/01 00:22:31;;;;;;;8.95;7.90;;;11.80;99.90;;;;;;6181891;23;20009;-73
2022/10/01 00:24:58;;;;;;;7.28;6.22;;;11.80;99.90;;;;;;6181742;23;20000;-72
2022/10/01 00:27:26;;;;;;;7.05;6.30;;;11.70;99.90;;;;;;6181567;23;20005;-72
2022/10/01 00:29:52;;;;;;;7.68;6.70;;;11.70;99.90;;;;;;6181345;23;20012;-72
2022/10/01 00:32:19;;;;;;;8.38;7.53;;;11.70;99.90;;;;;;6181556;23;20276;-72
2022/10/01 00:34:44;;;;;;;6.60;5.53;;;9.80;99.90;;;;;;6181616;23;20423;-72
2022/10/01 00:37:10;;;;;;;8.15;6.18;;;11.70;99.90;;;;;;6181422;23;20057;-72
2022/10/01 00:39:36;;;;;;;7.60;6.93;;;11.70;99.90;;;;;;6181823;23;20008;-72
2022/10/01 00:42:03;;;;;;;7.88;7.07;;;11.70;99.90;;;;;;6181320;23;20020;-72
2022/10/01 00:44:34;;;;;;;8.10;7.20;;;11.70;99.90;;;;;;6181456;23;20009;-72
2022/10/01 00:47:26;;;;;;;12.73;6.55;;;11.70;99.90;;;;;;6181299;23;20051;-72
2022/10/01 00:49:57;;;;;;;7.20;6.45;;;11.70;99.90;;;;;;6181407;23;19997;-72
2022/10/01 00:52:27;;;;;;;11.30;7.68;;;11.70;99.90;;;;;;6181357;23;20434;-73
2022/10/01 00:55:11;;;;;;;11.25;7.70;;;11.60;99.90;;;;;;6181516;23;20051;-73
2022/10/01 00:57:38;;;;;;;7.15;6.45;;;13.90;99.90;;;;;;6181224;23;20024;-73
2022/10/01 01:00:07;;;;;;;8.23;6.60;;;11.60;99.90;;;;;;6181647;23;20008;-72
2022/10/01 01:02:32;;;;;;;7.82;7.10;;;11.70;99.90;;;;;;6181117;23;19998;-72
2022/10/01 01:04:58;;;;;;;8.00;7.20;;;11.70;99.90;;;;;;6181433;23;20020;-72
2022/10/01 01:07:25;;;;;;;9.23;8.30;;;11.60;99.90;;;;;;6181489;23;19993;-72
2022/10/01 01:09:53;;;;;;;9.40;7.00;;;11.60;99.90;;;;;;6181378;23;20419;-72
2022/10/01 01:12:28;;;;;;;7.93;7.22;;;11.70;99.90;;;;;;6179724;23;20008;-72
2022/10/01 01:15:11;;;;;;;8.02;7.22;;;11.70;99.90;;;;;;6181623;23;19997;-72
2022/10/01 01:18:01;;;;;;;7.32;6.43;;;11.60;99.90;;;;;;6180976;23;20051;-72
2022/10/01 01:20:41;;;;;;;8.02;7.30;;;11.60;99.90;;;;;;6181308;23;20005;-72
2022/10/01 01:23:16;;;;;;;12.95;7.45;;;11.60;99.90;;;;;;6181550;23;20012;-72
2022/10/01 01:26:28;;;;;;;8.20;6.97;;;11.30;99.90;;;;;;6181353;23;20064;-72
2022/10/01 01:28:58;;;;;;;11.90;7.70;;;11.60;99.90;;;;;;6061666;23;20438;-72
2022/10/01 01:31:32;;;;;;;8.40;7.65;;;11.50;99.90;;;;;;6060606;23;20018;-72
2022/10/01 01:34:02;;;;;;;10.05;8.50;;;11.50;99.90;;;;;;6061562;23;20030;-72
2022/10/01 01:36:36;;;;;;;8.65;6.93;;;11.50;99.90;;;;;;6061278;23;20006;-73
2022/10/01 01:39:07;;;;;;;6.72;5.95;;;11.50;99.90;;;;;;6061497;23;20007;-73
2022/10/01 01:41:41;;;;;;;9.93;7.18;;;11.50;99.90;;;;;;6061508;23;20015;-73
2022/10/01 01:44:11;;;;;;;7.57;6.88;;;11.50;99.90;;;;;;6061931;23;20014;-73
2022/10/01 01:46:42;;;;;;;7.05;6.35;;;10.80;99.90;;;;;;6061146;23;20429;-73
2022/10/01 01:49:08;;;;;;;8.27;7.25;;;11.50;99.90;;;;;;6061732;23;20014;-73
2022/10/01 01:51:44;;;;;;;9.02;6.95;;;11.60;99.90;;;;;;6061420;23;20115;-73
2022/10/01 01:54:11;;;;;;;7.65;6.93;;;11.50;99.90;;;;;;6063255;23;20007;-73
2022/10/01 01:56:37;;;;;;;6.25;5.65;;;11.60;99.90;;;;;;6063703;23;20003;-73
2022/10/01 01:59:02;;;;;;;6.72;5.95;;;11.50;99.90;;;;;;6063782;23;20074;-73
2022/10/01 02:01:40;;;;;;;8.57;5.28;;;11.50;99.90;;;;;;6063106;23;20015;-73
2022/10/01 02:04:20;;;;;;;7.03;6.32;;;11.60;99.90;;;;;;6079384;23;20400;-73
2022/10/01 02:07:14;;;;;;;6.32;5.72;;;11.60;99.90;;;;;;6183381;23;20005;-73
2022/10/01 02:09:57;;;;;;;6.35;5.75;;;11.60;99.90;;;;;;6183521;23;20001;-73
2022/10/01 02:12:53;;;;;;;5.97;5.38;;;11.60;99.90;;;;;;6183355;23;20080;-74
2022/10/01 02:15:37;;;;;;;7.35;4.80;;;11.60;99.90;;;;;;6180500;23;20084;-74
2022/10/01 02:18:10;;;;;;;7.85;5.50;;;11.60;99.90;;;;;;6183594;23;20411;-74
2022/10/01 02:20:41;;;;;;;5.45;4.88;;;11.60;99.90;;;;;;6183651;23;20005;-74
2022/10/01 02:23:15;;;;;;;6.00;5.50;;;11.60;99.90;;;;;;6183632;23;20001;-74
2022/10/01 02:25:45;;;;;;;6.85;5.70;;;11.60;99.90;;;;;;6183360;23;20315;-74
2022/10/01 02:28:15;;;;;;;5.78;5.10;;;11.50;99.90;;;;;;6183528;23;20009;-74
2022/10/01 02:30:43;;;;;;;5.40;4.22;;;11.50;99.90;;;;;;6181824;23;20442;-73
2022/10/01 02:33:12;;;;;;;4.78;4.13;;;11.70;99.90;;;;;;6181057;23;20513;-74
2022/10/01 02:35:42;;;;;;;3.60;2.90;;;11.50;99.90;;;;;;6180826;23;20427;-74
2022/10/01 02:38:08;;;;;;;4.15;3.75;;;11.60;99.90;;;;;;6181247;23;20655;-74
2022/10/01 02:40:37;;;;;;;3.50;3.17;;;11.60;99.90;;;;;;6181238;23;20028;-73
2022/10/01 02:43:09;;;;;;;3.20;2.90;;;11.50;99.90;;;;;;6179223;23;20132;-73
2022/10/01 02:45:38;;;;;;;3.20;2.90;;;11.60;99.90;;;;;;6181783;23;20005;-74
2022/10/01 02:48:08;;;;;;;3.53;2.97;;;11.60;99.90;;;;;;6182796;23;20012;-73
2022/10/01 02:50:52;;;;;;;2.83;2.15;;;11.60;99.90;;;;;;6183244;23;20005;-73
2022/10/01 02:53:44;;;;;;;2.92;2.70;;;11.60;99.90;;;;;;6183114;23;20005;-73
2022/10/01 02:56:13;;;;;;;5.40;3.20;;;11.50;99.90;;;;;;6182959;23;20001;-74
2022/10/01 02:58:40;;;;;;;6.57;3.38;;;11.60;99.90;;;;;;6181561;23;20028;-73
2022/10/01 03:01:06;;;;;;;4.72;2.38;;;11.60;99.90;;;;;;6183475;23;20005;-73
2022/10/01 03:03:32;;;;;;;2.53;2.10;;;11.60;99.90;;;;;;6182870;23;20040;-74
2022/10/01 03:05:57;;;;;;;2.10;1.60;;;11.60;99.90;;;;;;6182589;23;20005;-73
2022/10/01 03:08:23;;;;;;;2.83;2.00;;;11.60;99.90;;;;;;6182873;23;19997;-73
2022/10/01 03:10:49;;;;;;;6.15;3.33;;;11.60;99.90;;;;;;6182870;23;20017;-74
2022/10/01 03:13:16;;;;;;;2.60;2.17;;;11.60;99.90;;;;;;6180989;23;20088;-73
2022/10/01 03:15:45;;;;;;;2.42;1.60;;;11.60;99.90;;;;;;6182721;23;20016;-73
2022/10/01 03:18:10;;;;;;;1.88;1.67;;;11.60;99.90;;;;;;6182532;23;20006;-73
2022/10/01 03:20:36;;;;;;;1.98;1.77;;;11.60;99.90;;;;;;6183230;23;20084;-74
2022/10/01 03:23:01;;;;;;;1.83;1.65;;;11.60;99.90;;;;;;6182291;23;20013;-74
2022/10/01 03:25:27;;;;;;;3.15;1.90;;;11.60;99.90;;;;;;6182513;23;19997;-73
2022/10/01 03:27:52;;;;;;;3.22;2.00;;;11.60;99.90;;;;;;6181589;23;20004;-74
2022/10/01 03:30:18;;;;;;;2.15;1.95;;;11.60;99.90;;;;;;6182390;23;20045;-74
2022/10/01 03:32:44;;;;;;;2.30;2.10;;;11.80;99.90;;;;;;6183006;23;20120;-74
2022/10/01 03:35:10;;;;;;;2.33;1.95;;;11.70;99.90;;;;;;6183107;23;20024;-74
2022/10/01 03:37:35;;;;;;;1.77;1.50;;;11.70;99.90;;;;;;6182522;23;20423;-74
2022/10/01 03:40:01;;;;;;;3.72;2.30;;;11.70;99.90;;;;;;6182517;23;19997;-74
2022/10/01 03:42:26;;;;;;;2.40;2.20;;;11.60;99.90;;;;;;6182515;23;20066;-74
2022/10/01 03:44:55;;;;;;;1.90;1.80;;;11.70;99.90;;;;;;6182573;23;20421;-74
2022/10/01 03:47:23;;;;;;;3.17;2.17;;;11.70;99.90;;;;;;6182769;23;20048;-74
2022/10/01 03:49:48;;;;;;;2.97;2.67;;;11.70;99.90;;;;;;6182254;23;20308;-74
2022/10/01 03:52:14;;;;;;;2.15;1.95;;;11.70;99.90;;;;;;6182732;23;20016;-74
2022/10/01 03:54:39;;;;;;;2.30;2.10;;;11.70;99.90;;;;;;6182637;23;20020;-73
2022/10/01 03:57:05;;;;;;;2.60;2.40;;;12.10;99.90;;;;;;6182300;23;20374;-74
2022/10/01 03:59:31;;;;;;;2.67;2.47;;;11.80;99.90;;;;;;6182755;23;20478;-74
2022/10/01 04:01:56;;;;;;;4.47;2.10;;;11.80;99.90;;;;;;6182656;23;20015;-74
2022/10/01 04:04:22;;;;;;;3.92;2.03;;;13.00;99.90;;;;;;6182448;23;20406;-74
2022/10/01 04:06:47;;;;;;;2.25;2.00;;;11.80;99.90;;;;;;6182233;23;20009;-74
2022/10/01 04:09:13;;;;;;;2.58;2.25;;;11.80;99.90;;;;;;6182339;23;20008;-74
2022/10/01 04:11:38;;;;;;;3.70;2.40;;;11.90;99.90;;;;;;6180195;23;20035;-74
2022/10/01 04:14:04;;;;;;;3.25;1.98;;;11.90;99.90;;;;;;6182547;23;19997;-74
2022/10/01 04:16:34;;;;;;;2.38;1.85;;;11.90;99.90;;;;;;6182649;23;20001;-73
2022/10/01 04:19:01;;;;;;;2.28;2.08;;;11.80;99.90;;;;;;6182558;23;20001;-74
2022/10/01 04:21:26;;;;;;;2.83;2.25;;;12.10;99.90;;;;;;6182506;23;20001;-74
2022/10/01 04:23:52;;;;;;;2.38;2.08;;;12.10;99.90;;;;;;6182209;23;20032;-74
2022/10/01 04:26:17;;;;;;;3.03;1.75;;;12.00;99.90;;;;;;6181691;23;20059;-73
2022/10/01 04:28:45;;;;;;;2.03;1.92;;;12.00;99.90;;;;;;6182371;23;20029;-73
2022/10/01 04:31:23;;;;;;;2.33;2.13;;;12.10;99.90;;;;;;6181932;23;20009;-74
2022/10/01 04:33:48;;;;;;;2.65;2.05;;;12.10;99.90;;;;;;6182312;23;20005;-74
2022/10/01 04:36:14;;;;;;;1.92;1.83;;;12.00;99.90;;;;;;6182006;23;20004;-74
2022/10/01 04:38:39;;;;;;;2.47;1.90;;;12.10;99.90;;;;;;6182388;23;20001;-74
2022/10/01 04:41:05;;;;;;;2.45;1.90;;;12.10;99.90;;;;;;6181574;23;20008;-74
2022/10/01 04:43:31;;;;;;;2.45;2.25;;;12.10;99.90;;;;;;6182294;23;20076;-74
2022/10/01 04:45:57;;;;;;;2.38;2.17;;;12.20;99.90;;;;;;6182149;23;20043;-74
2022/10/01 04:48:23;;;;;;;2.80;1.58;;;12.20;99.90;;;;;;6182034;23;19997;-74
2022/10/01 04:50:48;;;;;;;2.10;1.90;;;12.20;99.90;;;;;;6181892;23;20500;-73
2022/10/01 04:53:14;;;;;;;1.67;1.58;;;12.20;99.90;;;;;;6181871;23;20072;-73
2022/10/01 04:55:40;;;;;;;1.70;1.58;;;12.20;99.90;;;;;;6181597;23;20001;-73
2022/10/01 04:58:06;;;;;;;2.10;1.70;;;12.30;99.90;;;;;;6181996;23;19997;-74
2022/10/01 05:00:31;;;;;;;1.98;1.77;;;12.30;99.90;;;;;;6182250;23;20012;-74
2022/10/01 05:02:57;;;;;;;2.38;1.95;;;12.30;99.90;;;;;;6182201;23;20308;-73
2022/10/01 05:05:26;;;;;;;3.45;2.10;;;12.30;99.90;;;;;;6181858;23;20043;-73
2022/10/01 05:07:51;;;;;;;2.65;1.65;;;12.40;99.90;;;;;;6181443;23;20004;-73
2022/10/01 05:10:19;;;;;;;3.17;2.35;;;12.40;99.90;;;;;;6180107;23;20009;-73
2022/10/01 05:12:46;;;;;;;2.92;1.98;;;12.40;99.90;;;;;;6181878;23;19997;-73
2022/10/01 05:15:12;;;;;;;2.65;1.90;;;12.40;99.90;;;;;;6181980;23;20001;-73
2022/10/01 05:17:37;;;;;;;2.88;2.30;;;12.40;99.90;;;;;;6181976;23;20072;-74
2022/10/01 05:20:05;;;;;;;2.42;2.03;;;12.40;99.90;;;;;;6182278;23;20515;-74
2022/10/01 05:22:30;;;;;;;4.90;2.35;;;12.50;99.90;;;;;;6181383;23;20076;-74
2022/10/01 05:24:59;;;;;;;3.05;2.75;;;12.50;99.90;;;;;;6181881;23;20032;-74
2022/10/01 05:27:25;;;;;;;4.43;3.00;;;12.60;99.90;;;;;;6181577;23;20013;-73
2022/10/01 05:29:52;;;;;;;2.13;1.92;;;12.50;99.90;;;;;;6181485;23;20103;-73
2022/10/01 05:32:18;;;;;;;2.58;2.35;;;12.40;99.90;;;;;;6181695;23;20005;-74
2022/10/01 05:34:43;;;;;;;3.50;2.70;;;12.50;99.90;;;;;;6181686;23;20454;-74
2022/10/01 05:37:10;;;;;;;3.28;3.08;;;13.20;99.90;;;;;;6181517;23;20032;-74
2022/10/01 05:39:36;;;;;;;3.75;3.45;;;12.50;99.90;;;;;;6181982;23;20001;-74
2022/10/01 05:42:02;;;;;;;3.83;3.15;;;12.00;99.90;;;;;;6181820;23;20024;-74
2022/10/01 05:44:27;;;;;;;5.57;3.38;;;12.60;99.90;;;;;;6181731;23;20035;-73
2022/10/01 05:46:53;;;;;;;3.70;3.40;;;12.40;99.90;;;;;;6181711;23;20008;-73
2022/10/01 05:49:19;;;;;;;3.80;3.50;;;12.60;99.90;;;;;;6181861;23;20393;-73
2022/10/01 05:51:45;;;;;;;4.05;3.72;;;12.60;99.90;;;;;;6181043;23;20011;-73
2022/10/01 05:54:11;;;;;;;4.95;3.50;;;12.60;99.90;;;;;;6181775;23;20006;-73
2022/10/01 05:56:37;;;;;;;4.28;3.88;;;12.60;99.90;;;;;;6181861;23;20072;-73
2022/10/01 05:59:04;;;;;;;3.88;3.58;;;12.70;99.90;;;;;;6181600;23;20458;-73
2022/10/01 06:01:31;;;;;;;6.90;4.18;;;12.70;99.90;;;;;;6181861;23;20009;-74
2022/10/01 06:03:56;;;;;;;6.70;5.22;;;12.70;99.90;;;;;;6181677;23;20371;-74
2022/10/01 06:06:25;;;;;;;5.78;4.78;;;12.50;99.90;;;;;;6181122;23;20092;-74
2022/10/01 06:08:51;;;;;;;5.18;4.78;;;12.80;99.90;;;;;;6181515;23;20009;-73
2022/10/01 06:11:17;;;;;;;5.85;5.25;;;12.80;99.90;;;;;;6181576;23;20009;-73
2022/10/01 06:13:45;;;;;;;6.10;5.47;;;12.80;99.90;;;;;;6181817;23;20005;-73
2022/10/01 06:16:12;;;;;;;5.65;5.15;;;12.80;99.90;;;;;;6181650;23;19997;-73
2022/10/01 06:18:38;;;;;;;6.50;5.88;;;12.80;99.90;;;;;;6181633;23;20016;-73
2022/10/01 06:21:03;;;;;;;6.80;6.10;;;12.80;99.90;;;;;;6181162;23;20005;-73
2022/10/01 06:23:29;;;;;;;5.30;4.80;;;12.80;99.90;;;;;;6181603;23;20009;-74
2022/10/01 06:25:55;;;;;;;8.98;6.18;;;12.90;99.90;;;;;;6181374;23;20080;-73
2022/10/01 06:28:20;;;;;;;8.23;7.43;;;12.80;99.90;;;;;;6181531;23;20013;-74
2022/10/01 06:30:46;;;;;;;8.68;7.50;;;12.80;99.90;;;;;;6181408;23;20048;-73
2022/10/01 06:33:15;;;;;;;8.40;7.63;;;12.80;99.90;;;;;;6181305;23;20005;-73
2022/10/01 06:35:49;;;;;;;10.30;8.63;;;12.80;99.90;;;;;;6180989;23;20001;-73
2022/10/01 06:38:16;;;;;;;10.00;8.98;;;13.00;99.90;;;;;;6179804;23;20005;-73
2022/10/01 06:40:42;;;;;;;10.18;9.18;;;13.00;99.90;;;;;;6182868;23;20330;-74
2022/10/01 06:43:08;;;;;;;12.15;10.68;;;13.00;99.90;;;;;;6183181;23;20096;-73
2022/10/01 06:45:41;;;;;;;11.05;9.95;;;13.10;99.90;;;;;;6183490;23;20036;-73
2022/10/01 06:48:07;;;;;;;11.23;10.13;;;13.00;99.90;;;;;;6183322;23;20001;-73
2022/10/01 06:50:33;;;;;;;12.02;11.02;;;13.10;99.90;;;;;;6182695;23;20316;-74
2022/10/01 06:53:01;;;;;;;13.52;12.43;;;13.10;99.90;;;;;;6183184;23;20004;-73
2022/10/01 06:55:30;;;;;;;13.23;12.10;;;13.20;99.90;;;;;;6183287;23;20004;-73
2022/10/01 06:57:59;;;;;;;13.82;12.52;;;13.20;99.90;;;;;;6183130;23;20478;-73
2022/10/01 07:00:30;;;;;;;15.07;13.25;;;13.30;99.90;;;;;;6183096;23;20005;-74
2022/10/01 07:02:56;;;;;;;14.23;12.82;;;13.40;99.90;;;;;;6183056;23;20063;-73
2022/10/01 07:05:23;;;;;;;14.63;13.27;;;13.40;99.90;;;;;;6181967;23;20001;-73
2022/10/01 07:07:48;;;;;;;15.45;14.05;;;13.50;99.90;;;;;;6181348;23;20506;-73
2022/10/01 07:10:15;;;;;;;16.20;14.70;;;13.30;99.90;;;;;;6182814;23;19997;-74
2022/10/01 07:12:41;;;;;;;14.80;13.23;;;13.50;99.90;;;;;;6183108;23;20029;-74
2022/10/01 07:15:07;;;;;;;15.57;14.15;;;13.40;99.90;;;;;;6183099;23;19997;-74
2022/10/01 07:17:33;;;;;;;14.77;13.52;;;13.40;99.90;;;;;;6183449;23;20371;-73
2022/10/01 07:20:00;;;;;;;15.75;14.02;;;13.40;99.90;;;;;;6182544;23;20005;-73
2022/10/01 07:22:26;;;;;;;17.55;15.60;;;13.50;99.90;;;;;;6183001;23;20020;-74
2022/10/01 07:24:51;;;;;;;17.08;14.27;;;13.60;99.90;;;;;;6182895;23;20001;-74
2022/10/01 07:27:18;;;;;;;16.58;15.18;;;13.70;99.90;;;;;;6182825;23;20331;-74
2022/10/01 07:29:44;;;;;;;17.17;15.63;;;13.90;99.90;;;;;;6182526;23;20008;-74
2022/10/01 07:32:09;;;;;;;14.75;13.50;;;14.00;99.90;;;;;;6183018;23;20005;-74
2022/10/01 07:34:39;;;;;;;18.17;16.65;;;14.10;99.90;;;;;;6182278;23;20322;-74
2022/10/01 07:37:05;;;;;;;18.95;17.08;;;14.10;99.90;;;;;;6182720;23;19997;-74
2022/10/01 07:39:31;;;;;;;17.50;15.80;;;14.20;99.90;;;;;;6182614;23;20020;-74
2022/10/01 07:41:57;;;;;;;19.50;17.65;;;14.30;99.90;;;;;;6182737;23;20013;-74
2022/10/01 07:44:23;;;;;;;19.45;16.80;;;14.30;99.90;;;;;;6182567;23;20480;-74
2022/10/01 07:46:49;;;;;;;17.95;16.25;;;15.20;99.90;;;;;;6182374;23;20005;-74
2022/10/01 07:49:15;;;;;;;19.77;17.73;;;14.40;99.90;;;;;;6181981;23;20300;-74
2022/10/01 07:51:42;;;;;;;17.58;15.75;;;14.50;99.90;;;;;;6182102;23;20092;-74
2022/10/01 07:54:08;;;;;;;20.95;18.83;;;14.60;99.90;;;;;;6182489;23;20007;-74
2022/10/01 07:56:34;;;;;;;18.20;16.33;;;14.70;99.90;;;;;;6182238;23;20009;-74
2022/10/01 07:58:59;;;;;;;18.58;16.73;;;14.80;99.90;;;;;;6182467;23;20016;-74
2022/10/01 08:01:25;;;;;;;18.38;16.65;;;14.90;99.90;;;;;;6182526;23;20005;-74
2022/10/01 08:03:51;;;;;;;18.48;16.77;;;15.00;99.90;;;;;;6181731;23;20001;-74
2022/10/01 08:06:18;;;;;;;16.98;15.45;;;15.00;99.90;;;;;;6181913;23;20009;-73
2022/10/01 08:08:44;;;;;;;19.67;17.48;;;15.10;99.90;;;;;;6182144;23;20001;-74
2022/10/01 08:11:13;;;;;;;18.27;16.67;;;17.00;99.90;;;;;;6181194;23;20008;-74
2022/10/01 08:13:39;;;;;;;20.13;17.83;;;15.30;99.90;;;;;;6181381;23;20008;-74
2022/10/01 08:16:08;;;;;;;16.83;15.07;;;15.00;99.90;;;;;;6181460;23;20027;-73
2022/10/01 08:18:35;;;;;;;20.52;18.70;;;15.20;99.90;;;;;;6180551;23;19997;-74
2022/10/01 08:21:01;;;;;;;19.83;17.70;;;15.20;99.90;;;;;;6180961;23;20005;-73
2022/10/01 08:23:28;;;;;;;19.17;17.20;;;15.10;99.90;;;;;;6181773;23;20005;-74
2022/10/01 08:25:59;;;;;;;17.67;16.08;;;15.10;99.90;;;;;;6181813;23;20004;-74
2022/10/01 08:28:25;;;;;;;22.13;18.55;;;15.00;99.90;;;;;;6181653;23;20001;-73
2022/10/01 08:30:51;;;;;;;23.08;19.45;;;17.40;99.90;;;;;;6181338;23;20017;-74
2022/10/01 08:33:16;;;;;;;22.77;17.85;;;15.20;99.90;;;;;;6181763;23;20004;-73
2022/10/01 08:35:42;;;;;;;19.80;17.90;;;15.30;99.90;;;;;;6182056;23;20005;-74
2022/10/01 08:38:08;;;;;;;20.13;18.10;;;15.10;99.90;;;;;;6182047;23;20037;-73
2022/10/01 08:40:41;;;;;;;20.55;18.33;;;15.10;99.90;;;;;;6182003;23;20008;-73
2022/10/01 08:43:27;;;;;;;20.45;17.55;;;15.10;99.90;;;;;;6181693;23;20071;-73
2022/10/01 08:45:57;;;;;;;18.67;16.88;;;15.10;99.90;;;;;;6180713;23;20005;-73
2022/10/01 08:48:29;;;;;;;16.17;14.75;;;15.10;99.90;;;;;;6181953;23;20005;-73
2022/10/01 08:51:01;;;;;;;18.57;16.57;;;15.10;99.90;;;;;;6181862;23;20485;-73
2022/10/01 08:53:50;;;;;;;17.92;16.33;;;15.30;99.90;;;;;;6182050;23;20000;-73
2022/10/01 08:56:36;;;;;;;19.55;17.10;;;15.60;99.90;;;;;;6182164;23;20318;-73
2022/10/01 08:59:11;;;;;;;22.13;15.75;;;15.80;99.90;;;;;;6181841;23;20407;-73
2022/10/01 09:01:37;;;;;;;17.10;14.25;;;15.90;99.90;;;;;;6181272;23;20013;-73
2022/10/01 09:04:04;;;;;;;16.73;13.93;;;16.00;99.90;;;;;;6181535;23;20080;-73
2022/10/01 09:06:30;;;;;;;15.10;13.65;;;16.00;99.90;;;;;;6181790;23;20016;-73
2022/10/01 09:09:17;;;;;;;16.13;12.50;;;16.00;99.90;;;;;;6181023;23;20365;-73
2022/10/01 09:12:07;;;;;;;12.80;11.00;;;15.80;99.90;;;;;;6181674;23;20016;-74
2022/10/01 09:14:53;;;;;;;14.43;10.77;;;15.70;99.90;;;;;;6181308;23;20001;-73
2022/10/01 09:17:19;;;;;;;12.93;11.68;;;15.70;99.90;;;;;;6181565;23;20001;-74
2022/10/01 09:19:44;;;;;;;11.85;10.75;;;17.10;99.90;;;;;;6181532;23;20011;-73
2022/10/01 09:22:38;;;;;;;12.15;9.18;;;16.10;99.90;;;;;;6182016;23;20391;-72
2022/10/01 09:25:34;;;;;;;8.70;7.82;;;16.30;99.90;;;;;;6181832;23;20077;-73
2022/10/01 09:28:20;;;;;;;11.93;7.55;;;16.10;99.90;;;;;;6157804;23;20032;-73
2022/10/01 09:31:16;;;;;;;9.68;6.65;;;16.20;99.90;;;;;;6181007;23;20017;-72
2022/10/01 09:33:49;;;;;;;7.22;5.70;;;16.10;99.90;;;;;;6180465;23;20005;-73
2022/10/01 09:36:17;;;;;;;11.43;4.80;;;15.90;99.90;;;;;;6179905;23;20004;-73
2022/10/01 09:38:50;;;;;;;6.75;3.50;;;15.90;99.90;;;;;;6180132;23;20093;-72
2022/10/01 09:41:16;;;;;;;5.35;3.35;;;15.80;99.90;;;;;;6181610;23;20009;-73
2022/10/01 09:43:43;;;;;;;7.10;2.90;;;16.60;99.90;;;;;;6181374;23;20052;-73
2022/10/01 09:46:15;;;;;;;7.35;2.95;;;16.10;99.90;;;;;;6182004;23;20005;-73
2022/10/01 09:49:07;;;;;;;6.25;2.13;;;16.00;99.90;;;;;;6181522;23;20001;-74
2022/10/01 09:51:41;;;;;;;6.68;1.40;;;16.00;99.90;;;;;;6181556;23;20013;-73
2022/10/01 09:54:30;;;;;;;8.23;1.40;;;15.80;99.90;;;;;;6181754;23;20051;-73
2022/10/01 09:57:09;;;;;;;2.67;1.20;;;15.70;99.90;;;;;;6181494;23;20051;-73
2022/10/01 09:59:42;;;;;;;6.63;1.65;;;15.70;99.90;;;;;;6179550;23;20335;-73
2022/10/01 10:02:26;;;;;;;2.55;1.33;;;15.50;99.90;;;;;;6181938;23;20055;-73
2022/10/01 10:05:03;;;;;;;5.40;1.77;;;15.40;99.90;;;;;;6181471;23;20401;-73
2022/10/01 10:07:31;;;;;;;10.60;1.92;;;15.50;99.90;;;;;;6181623;23;20005;-73
2022/10/01 10:10:06;;;;;;;5.93;1.63;;;15.40;99.90;;;;;;6181576;23;20080;-73
2022/10/01 10:12:33;;;;;;;5.93;2.08;;;15.30;99.90;;;;;;6180613;23;20013;-73
2022/10/01 10:15:15;;;;;;;9.73;2.35;;;15.40;99.90;;;;;;6180918;23;20072;-72
2022/10/01 10:17:43;;;;;;;8.35;1.50;;;15.40;99.90;;;;;;6183217;23;20028;-72
2022/10/01 10:20:22;;;;;;;6.88;2.00;;;15.40;99.90;;;;;;6183147;23;20013;-73
2022/10/01 10:22:47;;;;;;;6.28;2.03;;;15.50;99.90;;;;;;6183232;23;19998;-73
2022/10/01 10:25:20;;;;;;;8.38;2.70;;;15.60;99.90;;;;;;6182537;23;20008;-73
2022/10/01 10:27:54;;;;;;;9.13;2.45;;;15.60;99.90;;;;;;6182653;23;19994;-73
2022/10/01 10:30:24;;;;;;;8.88;1.75;;;15.70;99.90;;;;;;6182850;23;20017;-73
2022/10/01 10:33:00;;;;;;;8.98;2.47;;;15.80;99.90;;;;;;6183165;23;20001;-72
2022/10/01 10:35:27;;;;;;;9.25;1.60;;;16.00;99.90;;;;;;6182639;23;20005;-73
2022/10/01 10:37:56;;;;;;;10.60;1.98;;;16.20;99.90;;;;;;6182869;23;20017;-72
2022/10/01 10:40:25;;;;;;;9.10;2.08;;;16.50;99.90;;;;;;6182332;23;20008;-73
2022/10/01 10:42:53;;;;;;;10.48;2.33;;;16.60;99.90;;;;;;6181388;23;20009;-74
2022/10/01 10:45:28;;;;;;;8.98;2.22;;;17.00;99.90;;;;;;6181738;23;20001;-73
2022/10/01 10:47:54;;;;;;;6.55;1.42;;;17.10;99.90;;;;;;6182585;23;20001;-73
2022/10/01 10:50:32;;;;;;;11.98;2.45;;;17.30;99.90;;;;;;6182777;23;20001;-73
2022/10/01 10:52:58;;;;;;;9.07;1.90;;;17.50;99.90;;;;;;6182456;23;20001;-73
2022/10/01 10:55:29;;;;;;;9.85;1.88;;;17.70;99.90;;;;;;6182694;23;19997;-73
2022/10/01 10:58:13;;;;;;;7.82;1.55;;;17.70;99.90;;;;;;6182587;23;20005;-74
2022/10/01 11:00:51;;;;;;;9.23;1.50;;;17.70;99.90;;;;;;6182620;23;20009;-74
2022/10/01 11:03:21;;;;;;;6.75;1.83;;;17.80;99.90;;;;;;6182840;23;20008;-72
2022/10/01 11:05:50;;;;;;;6.45;0.93;;;17.80;99.90;;;;;;6183070;23;20001;-74
2022/10/01 11:08:26;;;;;;;8.00;2.25;;;17.60;99.90;;;;;;6182744;23;20004;-73
2022/10/01 11:11:12;;;;;;;8.82;2.38;;;17.90;99.90;;;;;;6181708;23;20024;-73
2022/10/01 11:13:49;;;;;;;9.25;1.80;;;17.60;99.90;;;;;;6182292;23;20001;-76
2022/10/01 11:16:23;;;;;;;6.07;1.42;;;18.50;99.90;;;;;;6182404;23;20004;-76
2022/10/01 11:18:56;;;;;;;;;;;16.60;99.90;;;;;;6182006;23;20386;-76
2022/10/01 11:21:30;;;;;;;6.47;1.33;;;15.80;99.90;;;;;;6181713;23;20386;-76
2022/10/01 11:24:23;;;;;;;12.18;1.67;;;15.40;99.90;;;;;;6182189;23;20012;-75
2022/10/01 11:27:23;;;;;;;12.55;1.70;;;15.20;99.90;;;;;;6181380;23;20011;-75
2022/10/01 11:29:51;;;;;;;12.15;2.05;;;15.10;99.90;;;;;;6180192;23;20021;-76
2022/10/01 11:32:21;;;;;;;6.00;1.60;;;15.60;99.90;;;;;;6182255;23;20009;-75
2022/10/01 11:34:52;;;;;;;12.05;1.92;;;16.30;99.90;;;;;;6181655;23;20012;-75
2022/10/01 11:37:37;;;;;;;6.45;1.52;;;17.10;99.90;;;;;;6182095;23;20032;-77
2022/10/01 11:40:23;;;;;;;4.43;1.60;;;15.10;99.90;;;;;;6181458;23;20007;-74
2022/10/01 11:42:54;;;;;;;11.30;2.10;;;15.20;99.90;;;;;;6182340;23;20001;-75
2022/10/01 11:45:45;;;;;;;10.68;1.70;;;15.40;99.90;;;;;;6182280;23;20005;-76
2022/10/01 11:48:30;;;;;;;4.55;1.20;;;15.70;99.90;;;;;;6168868;23;20016;-76
2022/10/01 11:51:02;;;;;;;5.68;1.77;;;15.80;99.90;;;;;;6182263;23;20423;-76
2022/10/01 11:53:35;;;;;;;11.98;1.10;;;17.30;99.90;;;;;;6181516;23;20001;-75
2022/10/01 11:59:21;;;;;;;5.85;1.10;;;15.80;99.90;;;;;;6182177;23;20352;-74
2022/10/01 12:01:56;;;;;;;9.85;1.25;;;15.70;99.90;;;;;;6182073;23;20005;-74
2022/10/01 12:04:36;;;;;;;12.55;1.45;;;15.60;99.90;;;;;;6182004;23;20001;-74
2022/10/01 12:07:14;;;;;;;11.85;1.95;;;15.60;99.90;;;;;;6182012;23;20008;-74
2022/10/01 12:10:18;;;;;;;6.22;2.22;;;15.60;99.90;;;;;;6181402;23;20001;-74
2022/10/01 12:12:56;;;;;;;8.43;1.48;;;15.70;99.90;;;;;;6176653;23;20017;-74
2022/10/01 12:15:27;;;;;;;9.23;1.65;;;15.70;99.90;;;;;;6182068;23;20028;-74
2022/10/01 12:17:57;;;;;;;10.25;1.85;;;15.90;99.90;;;;;;6182114;23;20008;-74
2022/10/01 12:20:34;;;;;;;5.75;1.58;;;16.00;99.90;;;;;;6181873;23;20004;-74
2022/10/01 12:23:04;;;;;;;6.82;1.73;;;16.00;99.90;;;;;;6181337;23;20011;-74
2022/10/01 12:25:55;;;;;;;6.78;1.73;;;16.10;99.90;;;;;;6181837;23;20423;-76
2022/10/01 12:28:29;;;;;;;6.65;2.03;;;16.20;99.90;;;;;;6181888;23;20072;-75
2022/10/01 12:31:07;;;;;;;9.27;1.60;;;17.00;99.90;;;;;;6179686;23;20013;-74
2022/10/01 12:33:50;;;;;;;9.23;1.95;;;16.30;99.90;;;;;;6182120;23;20005;-75
2022/10/01 12:36:37;;;;;;;8.30;1.17;;;16.50;99.90;;;;;;6182066;23;19997;-75
2022/10/01 12:39:11;;;;;;;5.65;0.80;;;16.60;99.90;;;;;;6181194;23;20008;-74
2022/10/01 12:41:58;;;;;;;7.75;1.13;;;16.60;99.90;;;;;;6181729;23;20005;-75
2022/10/01 12:45:02;;;;;;;10.45;1.40;;;16.60;99.90;;;;;;6181347;23;20012;-75
2022/10/01 12:47:35;;;;;;;9.55;1.42;;;16.50;99.90;;;;;;6181370;23;20063;-75
2022/10/01 12:50:22;;;;;;;10.38;1.42;;;16.60;99.90;;;;;;6180336;23;20009;-75
2022/10/01 12:53:19;;;;;;;7.35;1.45;;;16.40;99.90;;;;;;6180966;23;20470;-75
2022/10/01 12:56:03;;;;;;;9.27;1.73;;;16.10;99.90;;;;;;6180971;23;20323;-74
2022/10/01 12:58:44;;;;;;;;;;;16.00;99.90;;;;;;6181081;23;20008;-76
2022/10/01 13:01:25;;;;;;;6.93;1.48;;;16.00;99.90;;;;;;6180863;23;20495;-75
2022/10/01 13:04:23;;;;;;;8.73;1.25;;;15.90;99.90;;;;;;6181247;23;20285;-76
2022/10/01 13:07:17;;;;;;;7.10;1.60;;;15.80;99.90;;;;;;6153508;23;20019;-75